Time;durP1;ratioP1;P1;durP2;ratioP2;P2;SDS_P1;SDS_P2;PMS_P1;PMS_P2;Temp;Humidity;BMP_temperature;BMP_pressure;BME280_temperature;BME280_humidity;BME280_pressure;Samples;Min_cycle;Max_cycle;Signal;HPM_P1;HPM_P2
2023/01/08 00:01:57;;;;;;;11.30;8.50;;;22.20;99.90;;;;;;5033916;28;20022;-51
2023/01/08 00:04:23;;;;;;;10.85;7.38;;;22.20;99.90;;;;;;5034331;28;20032;-48
2023/01/08 00:06:48;;;;;;;11.68;8.05;;;22.10;99.90;;;;;;5033938;28;20034;-47
2023/01/08 00:09:14;;;;;;;11.82;8.10;;;22.10;99.90;;;;;;5033788;28;20568;-48
2023/01/08 00:11:40;;;;;;;11.15;8.25;;;22.10;99.90;;;;;;5033826;28;20022;-48
2023/01/08 00:14:06;;;;;;;11.25;7.50;;;22.10;99.90;;;;;;5033978;28;20044;-49
2023/01/08 00:16:31;;;;;;;13.25;8.77;;;22.10;99.90;;;;;;5033686;28;20093;-49
2023/01/08 00:18:57;;;;;;;10.45;7.28;;;22.10;99.90;;;;;;5033613;28;20087;-48
2023/01/08 00:21:23;;;;;;;11.88;7.50;;;22.10;99.90;;;;;;5033585;28;20026;-48
2023/01/08 00:23:49;;;;;;;9.95;7.20;;;22.00;99.90;;;;;;5033583;28;20030;-48
2023/01/08 00:26:15;;;;;;;11.50;8.13;;;22.10;99.90;;;;;;5033420;28;20377;-48
2023/01/08 00:28:41;;;;;;;12.52;7.60;;;22.00;99.90;;;;;;5033458;28;20365;-48
2023/01/08 00:31:09;;;;;;;12.13;9.50;;;22.00;99.90;;;;;;5032293;28;20107;-48
2023/01/08 00:33:36;;;;;;;13.25;8.05;;;22.00;99.90;;;;;;5032153;28;20500;-48
2023/01/08 00:36:11;;;;;;;11.77;8.13;;;22.00;99.90;;;;;;5033415;28;20033;-48
2023/01/08 00:38:37;;;;;;;14.50;8.35;;;22.00;99.90;;;;;;5033129;28;20041;-49
2023/01/08 00:41:03;;;;;;;10.20;8.20;;;22.00;99.90;;;;;;5033256;28;20029;-48
2023/01/08 00:43:29;;;;;;;11.73;8.13;;;22.00;99.90;;;;;;5033197;28;20017;-48
2023/01/08 00:45:55;;;;;;;12.10;8.00;;;21.90;99.90;;;;;;5033083;28;20056;-48
2023/01/08 00:48:21;;;;;;;11.40;8.55;;;21.90;99.90;;;;;;5033105;28;20021;-48
2023/01/08 00:50:48;;;;;;;11.18;8.02;;;21.90;99.90;;;;;;5032975;28;20026;-47
2023/01/08 00:53:14;;;;;;;12.15;8.65;;;21.90;99.90;;;;;;5032937;28;20064;-48
2023/01/08 00:55:40;;;;;;;13.27;9.05;;;21.90;99.90;;;;;;5031626;28;20061;-48
2023/01/08 00:58:06;;;;;;;13.38;7.93;;;21.90;99.90;;;;;;5033024;28;20381;-48
2023/01/08 01:00:31;;;;;;;13.43;8.13;;;21.90;99.90;;;;;;5033486;28;20026;-49
2023/01/08 01:02:57;;;;;;;11.80;8.38;;;21.90;99.90;;;;;;5032885;28;20021;-49
2023/01/08 01:05:23;;;;;;;11.32;7.95;;;21.80;99.90;;;;;;5032142;28;20032;-49
2023/01/08 01:07:49;;;;;;;13.23;9.07;;;21.80;99.90;;;;;;5032708;28;20036;-48
2023/01/08 01:10:15;;;;;;;12.43;8.38;;;21.80;99.90;;;;;;5032702;28;20083;-49
2023/01/08 01:12:41;;;;;;;12.65;8.18;;;21.80;99.90;;;;;;5032646;28;20064;-48
2023/01/08 01:15:10;;;;;;;12.23;8.13;;;21.80;99.90;;;;;;5032893;28;20105;-49
2023/01/08 01:17:38;;;;;;;11.93;8.55;;;21.70;99.90;;;;;;5032736;28;20039;-48
2023/01/08 01:20:05;;;;;;;13.43;9.13;;;21.80;99.90;;;;;;5032400;28;20038;-48
2023/01/08 01:22:31;;;;;;;14.20;8.90;;;21.70;99.90;;;;;;5032533;28;20489;-49
2023/01/08 01:24:57;;;;;;;14.55;9.50;;;21.70;99.90;;;;;;5032525;28;20532;-48
2023/01/08 01:27:25;;;;;;;14.00;9.05;;;21.70;99.90;;;;;;5032488;28;20152;-48
2023/01/08 01:29:51;;;;;;;13.38;9.45;;;21.70;99.90;;;;;;5032542;28;20022;-48
2023/01/08 01:32:17;;;;;;;14.20;9.43;;;21.70;99.90;;;;;;5032475;28;20083;-48
2023/01/08 01:34:43;;;;;;;14.07;8.75;;;21.70;99.90;;;;;;5032382;28;20025;-48
2023/01/08 01:37:13;;;;;;;10.90;8.55;;;21.70;99.90;;;;;;5032377;28;20084;-47
2023/01/08 01:39:39;;;;;;;13.88;9.73;;;21.70;99.90;;;;;;5031268;28;20029;-48
2023/01/08 01:42:05;;;;;;;14.18;9.30;;;21.70;99.90;;;;;;5032344;28;20159;-48
2023/01/08 01:44:44;;;;;;;13.48;9.18;;;21.60;99.90;;;;;;5032295;28;20029;-48
2023/01/08 01:47:19;;;;;;;13.38;8.80;;;21.60;99.90;;;;;;5032488;28;20029;-49
2023/01/08 01:49:54;;;;;;;12.57;8.63;;;21.60;99.90;;;;;;5032235;28;20018;-49
2023/01/08 01:52:21;;;;;;;13.98;8.45;;;21.60;99.90;;;;;;5032176;28;20044;-49
2023/01/08 01:54:49;;;;;;;12.63;8.65;;;21.60;99.90;;;;;;5032177;28;20410;-49
2023/01/08 01:57:14;;;;;;;13.40;9.02;;;21.60;99.90;;;;;;5032206;28;20056;-49
2023/01/08 01:59:41;;;;;;;13.65;9.13;;;21.50;99.90;;;;;;5032645;28;20034;-49
2023/01/08 02:02:07;;;;;;;13.07;8.65;;;21.50;99.90;;;;;;5032121;28;20025;-58
2023/01/08 02:04:33;;;;;;;14.05;9.55;;;21.50;99.90;;;;;;5032263;28;20527;-49
2023/01/08 02:07:21;;;;;;;17.27;9.30;;;21.50;99.90;;;;;;5032186;28;20129;-47
2023/01/08 02:10:10;;;;;;;12.27;9.07;;;21.50;99.90;;;;;;5031931;28;20105;-48
2023/01/08 02:12:49;;;;;;;13.93;9.20;;;21.40;99.90;;;;;;5032019;28;20393;-48
2023/01/08 02:15:28;;;;;;;13.25;9.38;;;21.40;99.90;;;;;;5032971;28;20025;-48
2023/01/08 02:18:13;;;;;;;12.20;8.63;;;21.40;99.90;;;;;;5035790;28;20034;-47
2023/01/08 02:20:45;;;;;;;15.63;9.48;;;21.40;99.90;;;;;;5036036;28;20025;-47
2023/01/08 02:23:32;;;;;;;12.68;8.68;;;21.40;99.90;;;;;;5036110;28;20108;-47
2023/01/08 02:26:13;;;;;;;12.90;9.02;;;21.40;99.90;;;;;;5035790;28;20029;-47
2023/01/08 02:28:48;;;;;;;12.93;8.82;;;21.40;99.90;;;;;;5035993;28;20071;-47
2023/01/08 02:31:15;;;;;;;14.98;10.13;;;21.40;99.90;;;;;;5035859;28;20485;-48
2023/01/08 02:33:41;;;;;;;15.35;9.45;;;21.40;99.90;;;;;;5036063;28;20389;-47
2023/01/08 02:36:21;;;;;;;14.60;10.35;;;21.40;99.90;;;;;;5035621;28;20022;-48
2023/01/08 02:39:16;;;;;;;13.48;9.23;;;21.40;99.90;;;;;;5035221;28;20076;-48
2023/01/08 02:41:51;;;;;;;14.95;9.77;;;21.40;99.90;;;;;;5016460;28;20053;-52
2023/01/08 02:44:33;;;;;;;15.80;10.07;;;21.30;99.90;;;;;;5035522;28;20489;-48
2023/01/08 02:47:01;;;;;;;26.52;11.05;;;21.30;99.90;;;;;;5025117;28;20470;-50
2023/01/08 02:49:31;;;;;;;16.08;9.48;;;21.40;99.90;;;;;;5018201;28;20026;-49
2023/01/08 02:52:01;;;;;;;18.73;9.20;;;21.30;99.90;;;;;;5035032;28;20048;-49
2023/01/08 02:54:31;;;;;;;14.07;8.23;;;21.40;99.90;;;;;;5034605;28;20346;-48
2023/01/08 02:57:05;;;;;;;14.85;8.25;;;21.40;99.90;;;;;;5035034;28;20017;-49
2023/01/08 02:59:32;;;;;;;15.50;9.02;;;21.40;99.90;;;;;;5035324;28;20029;-47
2023/01/08 03:02:01;;;;;;;20.27;9.90;;;21.40;99.90;;;;;;5034695;28;20068;-47
2023/01/08 03:04:29;;;;;;;21.55;10.75;;;21.40;99.90;;;;;;5034820;28;20029;-48
2023/01/08 03:06:56;;;;;;;15.35;9.70;;;21.40;99.90;;;;;;5034986;28;20018;-46
2023/01/08 03:09:22;;;;;;;19.00;9.55;;;21.40;99.90;;;;;;5034471;28;20017;-46
2023/01/08 03:12:14;;;;;;;16.00;9.48;;;21.40;99.90;;;;;;5034799;28;20022;-49
2023/01/08 03:14:52;;;;;;;14.43;9.40;;;21.40;99.90;;;;;;5034625;28;20477;-49
2023/01/08 03:17:47;;;;;;;16.05;9.27;;;21.40;99.90;;;;;;5034223;28;20473;-47
2023/01/08 03:20:19;;;;;;;15.73;8.75;;;21.30;99.90;;;;;;5033467;28;20042;-45
2023/01/08 03:22:48;;;;;;;13.13;7.78;;;21.40;99.90;;;;;;5034880;28;20053;-46
2023/01/08 03:25:17;;;;;;;11.90;7.40;;;21.30;99.90;;;;;;5033784;28;20065;-47
2023/01/08 03:27:46;;;;;;;9.35;6.85;;;21.30;99.90;;;;;;5034012;28;20029;-47
2023/01/08 03:30:15;;;;;;;14.85;7.78;;;21.40;99.90;;;;;;5034682;28;20029;-47
2023/01/08 03:32:42;;;;;;;15.38;7.68;;;21.30;99.90;;;;;;5034564;28;20129;-46
2023/01/08 03:35:13;;;;;;;14.13;7.35;;;21.30;99.90;;;;;;5034247;28;20029;-46
2023/01/08 03:37:44;;;;;;;10.52;7.18;;;21.30;99.90;;;;;;5034233;28;20048;-47
2023/01/08 03:40:18;;;;;;;11.77;6.65;;;21.30;99.90;;;;;;5034123;28;20044;-47
2023/01/08 03:42:44;;;;;;;13.52;7.80;;;21.30;99.90;;;;;;5034322;28;20025;-47
2023/01/08 03:45:10;;;;;;;13.23;6.78;;;21.30;99.90;;;;;;5034374;28;20385;-46
2023/01/08 03:47:39;;;;;;;11.85;6.38;;;21.30;99.90;;;;;;5034154;28;20369;-47
2023/01/08 03:50:09;;;;;;;14.10;6.20;;;21.30;99.90;;;;;;5034037;28;20025;-47
2023/01/08 03:52:35;;;;;;;10.38;6.43;;;21.30;99.90;;;;;;5033927;28;20104;-46
2023/01/08 03:55:02;;;;;;;11.95;6.35;;;21.20;99.90;;;;;;5034135;28;20483;-46
2023/01/08 03:57:28;;;;;;;12.95;6.38;;;21.20;99.90;;;;;;5023651;28;20057;-47
2023/01/08 03:59:53;;;;;;;8.60;5.50;;;21.20;99.90;;;;;;5030457;28;20084;-47
2023/01/08 04:02:19;;;;;;;8.98;5.90;;;21.20;99.90;;;;;;5033677;28;20021;-47
2023/01/08 04:04:46;;;;;;;11.93;6.90;;;21.20;99.90;;;;;;5033957;28;20025;-48
2023/01/08 04:07:12;;;;;;;7.93;5.38;;;21.20;99.90;;;;;;5033781;28;20029;-47
2023/01/08 04:09:38;;;;;;;10.60;6.30;;;21.20;99.90;;;;;;5033650;28;20025;-47
2023/01/08 04:12:03;;;;;;;14.05;6.75;;;21.20;99.90;;;;;;5033965;28;20079;-53
2023/01/08 04:14:29;;;;;;;9.60;5.40;;;21.20;99.90;;;;;;5033503;28;20497;-47
2023/01/08 04:16:55;;;;;;;9.27;5.50;;;21.10;99.90;;;;;;5033503;28;20014;-46
2023/01/08 04:19:21;;;;;;;9.57;5.25;;;21.10;99.90;;;;;;5033426;28;20076;-47
2023/01/08 04:21:50;;;;;;;10.93;6.28;;;21.10;99.90;;;;;;5033470;28;20057;-47
2023/01/08 04:24:16;;;;;;;8.02;5.43;;;21.10;99.90;;;;;;5033603;28;20030;-46
2023/01/08 04:26:42;;;;;;;7.85;5.47;;;21.10;99.90;;;;;;5033312;28;20097;-47
2023/01/08 04:29:08;;;;;;;9.02;5.57;;;21.10;99.90;;;;;;5033354;28;20057;-47
2023/01/08 04:31:34;;;;;;;7.53;5.20;;;21.10;99.90;;;;;;5031372;28;20416;-47
2023/01/08 04:33:59;;;;;;;9.07;5.15;;;21.00;99.90;;;;;;5031913;28;20091;-47
2023/01/08 04:36:25;;;;;;;10.38;5.45;;;21.10;99.90;;;;;;5033397;28;20100;-47
2023/01/08 04:38:51;;;;;;;8.90;5.03;;;21.00;99.90;;;;;;5032315;28;20090;-46
2023/01/08 04:41:17;;;;;;;8.43;5.20;;;21.00;99.90;;;;;;5033389;28;20350;-46
2023/01/08 04:43:43;;;;;;;9.35;6.13;;;21.00;99.90;;;;;;5033204;28;20025;-46
2023/01/08 04:46:09;;;;;;;12.43;7.07;;;21.00;99.90;;;;;;5033242;28;20388;-46
2023/01/08 04:48:35;;;;;;;9.15;5.70;;;21.00;99.90;;;;;;5032870;28;20017;-46
2023/01/08 04:51:02;;;;;;;7.75;4.70;;;21.00;99.90;;;;;;5033149;28;20030;-46
2023/01/08 04:53:29;;;;;;;9.77;5.87;;;21.00;99.90;;;;;;5033153;28;20381;-46
2023/01/08 04:55:55;;;;;;;11.03;6.30;;;21.00;99.90;;;;;;5032998;28;20163;-46
2023/01/08 04:58:21;;;;;;;7.70;5.20;;;20.90;99.90;;;;;;5033156;28;20503;-46
2023/01/08 05:00:47;;;;;;;8.63;5.40;;;21.00;99.90;;;;;;5034171;28;20025;-45
2023/01/08 05:03:13;;;;;;;12.13;6.28;;;21.00;99.90;;;;;;5032880;28;20040;-46
2023/01/08 05:05:39;;;;;;;8.75;5.78;;;20.90;99.90;;;;;;5032830;28;20027;-46
2023/01/08 05:08:05;;;;;;;9.50;5.55;;;20.90;99.90;;;;;;5032739;28;20025;-46
2023/01/08 05:10:30;;;;;;;8.13;4.85;;;20.90;99.90;;;;;;5032790;28;20018;-46
2023/01/08 05:13:00;;;;;;;8.95;5.13;;;20.90;99.90;;;;;;5032689;28;20381;-46
2023/01/08 05:15:26;;;;;;;8.27;4.78;;;20.90;99.90;;;;;;5032545;28;20384;-47
2023/01/08 05:18:05;;;;;;;10.40;4.80;;;20.90;99.90;;;;;;5032746;28;20029;-47
2023/01/08 05:20:33;;;;;;;17.48;5.85;;;20.90;99.90;;;;;;5032683;28;20409;-47
2023/01/08 05:23:00;;;;;;;7.55;5.38;;;20.90;99.90;;;;;;5032557;28;20036;-47
2023/01/08 05:25:26;;;;;;;9.52;4.80;;;20.90;99.90;;;;;;5032441;28;20029;-47
2023/01/08 05:27:52;;;;;;;7.20;5.30;;;20.90;99.90;;;;;;5032741;28;20029;-47
2023/01/08 05:30:18;;;;;;;7.45;4.18;;;20.90;99.90;;;;;;5032444;28;20021;-47
2023/01/08 05:32:43;;;;;;;10.52;5.55;;;20.90;99.90;;;;;;5032318;28;20120;-47
2023/01/08 05:35:11;;;;;;;8.55;5.10;;;20.90;99.90;;;;;;5032412;28;20025;-46
2023/01/08 05:37:37;;;;;;;8.77;4.93;;;20.80;99.90;;;;;;5032159;28;20371;-46
2023/01/08 05:40:03;;;;;;;9.75;5.07;;;20.90;99.90;;;;;;5047544;28;20037;-45
2023/01/08 05:42:29;;;;;;;8.82;4.65;;;20.80;99.90;;;;;;5032287;28;20026;-45
2023/01/08 05:44:55;;;;;;;8.07;5.35;;;20.80;99.90;;;;;;5032191;28;20026;-45
2023/01/08 05:47:21;;;;;;;6.38;4.97;;;20.80;99.90;;;;;;5032578;28;20100;-46
2023/01/08 05:49:46;;;;;;;8.10;4.68;;;20.80;99.90;;;;;;5031865;28;20110;-47
2023/01/08 05:52:12;;;;;;;6.25;4.30;;;20.80;99.90;;;;;;5032230;28;20080;-47
2023/01/08 05:54:38;;;;;;;11.35;5.82;;;20.80;99.90;;;;;;5032297;28;20107;-47
2023/01/08 05:57:04;;;;;;;8.75;4.85;;;20.80;99.90;;;;;;5032188;28;20033;-46
2023/01/08 05:59:29;;;;;;;7.60;4.63;;;20.80;99.90;;;;;;5031997;28;20037;-46
2023/01/08 06:01:55;;;;;;;8.82;5.03;;;20.80;99.90;;;;;;5032116;28;20026;-46
2023/01/08 06:04:21;;;;;;;6.43;4.30;;;20.80;99.90;;;;;;5032417;28;20434;-47
2023/01/08 06:06:46;;;;;;;7.95;5.55;;;20.80;99.90;;;;;;5032157;28;20496;-47
2023/01/08 06:09:12;;;;;;;6.85;4.45;;;20.70;99.90;;;;;;5032081;28;20535;-47
2023/01/08 06:11:38;;;;;;;8.10;4.82;;;20.70;99.90;;;;;;5032061;28;20029;-47
2023/01/08 06:14:04;;;;;;;9.82;5.20;;;20.70;99.90;;;;;;5032086;28;20033;-46
2023/01/08 06:16:29;;;;;;;6.07;4.90;;;20.70;99.90;;;;;;5031962;28;20030;-47
2023/01/08 06:18:55;;;;;;;9.43;4.95;;;20.70;99.90;;;;;;5032042;28;20034;-47
2023/01/08 06:21:21;;;;;;;7.43;4.75;;;20.70;99.90;;;;;;5032228;28;20022;-48
2023/01/08 06:23:47;;;;;;;10.00;5.00;;;20.70;99.90;;;;;;5032077;28;20036;-56
2023/01/08 06:26:12;;;;;;;9.13;4.85;;;20.70;99.90;;;;;;5031993;28;20076;-46
2023/01/08 06:28:38;;;;;;;9.40;4.80;;;20.70;99.90;;;;;;5031891;28;20049;-46
2023/01/08 06:31:04;;;;;;;7.72;4.97;;;20.70;99.90;;;;;;5031943;28;20033;-47
2023/01/08 06:33:30;;;;;;;8.05;4.95;;;20.70;99.90;;;;;;5032008;28;20032;-47
2023/01/08 06:36:04;;;;;;;9.27;4.90;;;20.70;99.90;;;;;;5032021;28;20029;-47
2023/01/08 06:38:31;;;;;;;6.82;4.60;;;20.70;99.90;;;;;;5031623;28;20594;-47
2023/01/08 06:40:57;;;;;;;7.28;5.45;;;20.70;99.90;;;;;;5031918;28;20032;-46
2023/01/08 06:43:23;;;;;;;5.90;4.03;;;20.70;99.90;;;;;;5032040;28;20021;-46
2023/01/08 06:45:57;;;;;;;8.93;4.65;;;20.70;99.90;;;;;;5031845;28;20036;-46
2023/01/08 06:48:24;;;;;;;6.25;4.65;;;20.70;99.90;;;;;;5032010;28;20021;-47
2023/01/08 06:50:50;;;;;;;7.70;5.17;;;20.70;99.90;;;;;;5031779;28;20045;-46
2023/01/08 06:53:16;;;;;;;10.02;4.28;;;20.70;99.90;;;;;;5031662;28;20535;-46
2023/01/08 06:55:41;;;;;;;9.40;4.75;;;20.70;99.90;;;;;;5031567;28;20061;-46
2023/01/08 06:58:10;;;;;;;7.43;4.65;;;20.70;99.90;;;;;;5031498;28;20370;-46
2023/01/08 07:00:37;;;;;;;5.78;4.18;;;20.60;99.90;;;;;;5031706;28;20025;-47
2023/01/08 07:03:03;;;;;;;7.60;4.60;;;20.70;99.90;;;;;;5033528;28;20083;-46
2023/01/08 07:05:29;;;;;;;7.63;4.88;;;20.60;99.90;;;;;;5035058;28;20022;-46
2023/01/08 07:07:55;;;;;;;6.03;4.20;;;20.60;99.90;;;;;;5035256;28;20028;-46
2023/01/08 07:10:21;;;;;;;5.90;4.65;;;20.60;99.90;;;;;;5035047;28;20025;-46
2023/01/08 07:12:47;;;;;;;7.55;5.15;;;20.60;99.90;;;;;;5034927;28;20067;-46
2023/01/08 07:15:14;;;;;;;8.95;4.38;;;20.60;99.90;;;;;;5034830;28;20481;-46
2023/01/08 07:17:39;;;;;;;5.70;4.10;;;20.60;99.90;;;;;;5035056;28;20056;-46
2023/01/08 07:20:06;;;;;;;9.80;4.57;;;20.60;99.90;;;;;;5034742;28;20551;-46
2023/01/08 07:22:32;;;;;;;8.10;4.50;;;20.60;99.90;;;;;;5034817;28;20105;-46
2023/01/08 07:24:58;;;;;;;5.22;4.05;;;20.60;99.90;;;;;;5034907;28;20101;-46
2023/01/08 07:27:23;;;;;;;5.85;4.43;;;20.60;99.90;;;;;;5049934;28;20057;-46
2023/01/08 07:29:49;;;;;;;9.77;4.95;;;20.60;99.90;;;;;;5034517;28;20378;-46
2023/01/08 07:32:15;;;;;;;7.07;4.18;;;20.60;99.90;;;;;;5034650;28;20028;-46
2023/01/08 07:34:40;;;;;;;6.32;3.97;;;20.60;99.90;;;;;;5034547;28;20082;-46
2023/01/08 07:37:06;;;;;;;9.88;5.28;;;20.50;99.90;;;;;;5032979;28;20049;-49
2023/01/08 07:39:33;;;;;;;6.63;4.53;;;20.60;99.90;;;;;;5034354;28;20045;-46
2023/01/08 07:41:58;;;;;;;6.07;4.72;;;20.60;99.90;;;;;;5034518;28;20071;-47
2023/01/08 07:44:24;;;;;;;7.93;4.38;;;20.60;99.90;;;;;;5034389;28;20033;-47
2023/01/08 07:46:50;;;;;;;5.63;4.40;;;20.50;99.90;;;;;;5034399;28;20029;-47
2023/01/08 07:49:15;;;;;;;5.57;4.00;;;20.50;99.90;;;;;;5034230;28;20033;-47
2023/01/08 07:51:41;;;;;;;6.65;3.97;;;20.50;99.90;;;;;;5032870;28;20025;-47
2023/01/08 07:54:07;;;;;;;9.32;4.40;;;20.50;99.90;;;;;;5034038;28;20076;-47
2023/01/08 07:56:33;;;;;;;7.93;4.82;;;20.50;99.90;;;;;;5049460;28;20010;-47
2023/01/08 07:58:58;;;;;;;7.50;4.13;;;20.50;99.90;;;;;;5034192;28;20393;-47
2023/01/08 08:01:25;;;;;;;7.82;4.18;;;20.50;99.90;;;;;;5033956;28;20389;-48
2023/01/08 08:03:51;;;;;;;6.82;3.78;;;20.50;99.90;;;;;;5049339;28;20354;-47
2023/01/08 08:06:17;;;;;;;5.32;4.03;;;20.50;99.90;;;;;;5033963;28;20045;-47
2023/01/08 08:08:42;;;;;;;5.45;4.45;;;20.50;99.90;;;;;;5033884;28;20032;-47
2023/01/08 08:11:09;;;;;;;11.95;4.90;;;20.50;99.90;;;;;;5033832;28;20112;-47
2023/01/08 08:13:35;;;;;;;13.48;4.75;;;20.50;99.90;;;;;;5033801;28;20053;-47
2023/01/08 08:16:04;;;;;;;7.80;3.83;;;20.50;99.90;;;;;;5034032;28;20419;-47
2023/01/08 08:18:30;;;;;;;8.50;4.72;;;20.50;99.90;;;;;;5033801;28;20036;-47
2023/01/08 08:20:56;;;;;;;6.25;4.18;;;20.50;99.90;;;;;;5033561;28;20025;-47
2023/01/08 08:23:22;;;;;;;8.77;4.70;;;20.50;99.90;;;;;;5033570;28;20110;-47
2023/01/08 08:25:50;;;;;;;10.65;4.35;;;20.50;99.90;;;;;;5033621;28;20029;-46
2023/01/08 08:28:16;;;;;;;9.90;5.22;;;20.50;99.90;;;;;;5033524;28;20045;-46
2023/01/08 08:30:42;;;;;;;9.25;4.70;;;20.50;99.90;;;;;;5033493;28;20378;-47
2023/01/08 08:33:08;;;;;;;7.03;4.53;;;20.50;99.90;;;;;;5033435;28;20054;-51
2023/01/08 08:35:34;;;;;;;8.20;4.65;;;20.50;99.90;;;;;;5033431;28;20465;-50
2023/01/08 08:38:00;;;;;;;5.85;4.30;;;20.50;99.90;;;;;;5033457;28;20056;-47
2023/01/08 08:40:26;;;;;;;9.02;5.07;;;20.50;99.90;;;;;;5033162;28;20032;-47
2023/01/08 08:43:01;;;;;;;5.68;4.68;;;20.50;99.90;;;;;;5033090;28;20025;-48
2023/01/08 08:45:27;;;;;;;7.60;4.28;;;20.50;99.90;;;;;;5033124;28;20040;-47
2023/01/08 08:47:53;;;;;;;8.00;4.72;;;20.50;99.90;;;;;;5033121;28;20076;-47
2023/01/08 08:50:19;;;;;;;5.10;4.30;;;20.50;99.90;;;;;;5032977;28;20084;-47
2023/01/08 08:52:47;;;;;;;8.35;4.63;;;20.50;99.90;;;;;;5033101;28;20029;-47
2023/01/08 08:55:16;;;;;;;5.70;4.15;;;20.50;99.90;;;;;;5033159;28;20112;-47
2023/01/08 08:57:45;;;;;;;5.38;4.75;;;20.50;99.90;;;;;;5033084;28;20048;-47
2023/01/08 09:00:12;;;;;;;6.90;4.38;;;20.50;99.90;;;;;;5032717;28;20043;-48
2023/01/08 09:02:38;;;;;;;6.30;4.40;;;20.50;99.90;;;;;;5032833;28;20021;-47
2023/01/08 09:05:05;;;;;;;7.97;4.68;;;20.50;99.90;;;;;;5033159;28;20385;-47
2023/01/08 09:07:31;;;;;;;6.07;4.47;;;20.50;99.90;;;;;;5033265;28;20021;-47
2023/01/08 09:09:57;;;;;;;8.35;4.95;;;20.50;99.90;;;;;;5031577;28;20021;-48
2023/01/08 09:12:22;;;;;;;8.30;4.88;;;20.60;99.90;;;;;;5032669;28;20026;-47
2023/01/08 09:14:53;;;;;;;9.68;5.25;;;20.50;99.90;;;;;;5031276;28;20070;-47
2023/01/08 09:17:20;;;;;;;8.02;5.25;;;20.50;99.90;;;;;;5032598;28;20018;-47
2023/01/08 09:19:46;;;;;;;6.40;4.93;;;20.60;99.90;;;;;;5032586;28;20095;-48
2023/01/08 09:22:12;;;;;;;8.60;5.63;;;20.60;99.90;;;;;;5032421;28;20022;-47
2023/01/08 09:24:37;;;;;;;8.45;5.15;;;20.60;99.90;;;;;;5032036;28;20105;-47
2023/01/08 09:27:03;;;;;;;12.70;5.47;;;20.60;99.90;;;;;;5032612;28;20032;-47
2023/01/08 09:29:29;;;;;;;11.75;6.05;;;20.60;99.90;;;;;;5032410;28;20025;-47
2023/01/08 09:31:56;;;;;;;12.88;5.60;;;20.60;99.90;;;;;;5032354;28;20028;-47
2023/01/08 09:34:22;;;;;;;11.77;5.63;;;20.60;99.90;;;;;;5032410;28;20049;-48
2023/01/08 09:36:47;;;;;;;10.77;5.85;;;20.70;99.90;;;;;;5032260;28;20290;-48
2023/01/08 09:39:13;;;;;;;9.30;5.20;;;20.70;99.90;;;;;;5032186;28;20083;-47
2023/01/08 09:41:44;;;;;;;6.90;5.00;;;20.70;99.90;;;;;;5032300;28;20021;-47
2023/01/08 09:44:14;;;;;;;10.23;5.47;;;20.60;99.90;;;;;;5032319;28;20029;-47
2023/01/08 09:46:41;;;;;;;10.07;5.80;;;20.70;99.90;;;;;;5032123;28;20021;-47
2023/01/08 09:49:13;;;;;;;8.75;5.90;;;20.60;99.90;;;;;;5032272;28;20033;-47
2023/01/08 09:51:39;;;;;;;9.43;5.13;;;20.70;99.90;;;;;;5032483;28;20347;-48
2023/01/08 09:54:06;;;;;;;9.15;5.90;;;20.70;99.90;;;;;;5032376;28;20055;-46
2023/01/08 09:56:34;;;;;;;8.52;5.43;;;20.70;99.90;;;;;;5032308;28;20148;-47
2023/01/08 09:59:02;;;;;;;8.15;5.32;;;20.70;99.90;;;;;;5032016;28;20086;-47
2023/01/08 10:01:37;;;;;;;9.80;6.15;;;20.70;99.90;;;;;;5030830;28;20055;-48
2023/01/08 10:04:12;;;;;;;7.50;5.60;;;20.70;99.90;;;;;;5032337;28;20355;-47
2023/01/08 10:06:39;;;;;;;8.60;6.15;;;20.70;99.90;;;;;;5032389;28;20214;-47
2023/01/08 10:09:05;;;;;;;7.93;5.53;;;20.60;99.90;;;;;;5032233;28;20025;-48
2023/01/08 10:11:40;;;;;;;11.00;5.70;;;20.60;99.90;;;;;;5031936;28;20470;-48
2023/01/08 10:14:35;;;;;;;7.57;5.82;;;20.60;99.90;;;;;;5032212;28;20026;-48
2023/01/08 10:17:15;;;;;;;9.00;6.50;;;20.70;99.90;;;;;;5030937;28;20034;-48
2023/01/08 10:19:41;;;;;;;11.07;6.60;;;20.60;99.90;;;;;;5031840;28;20042;-47
2023/01/08 10:22:14;;;;;;;5.95;5.13;;;20.60;99.90;;;;;;5032123;28;20100;-48
2023/01/08 10:24:40;;;;;;;7.93;5.80;;;20.60;99.90;;;;;;5031945;28;20036;-48
2023/01/08 10:27:09;;;;;;;7.20;5.35;;;20.70;99.90;;;;;;5031988;28;20024;-49
2023/01/08 10:29:34;;;;;;;9.77;6.43;;;20.60;99.90;;;;;;5032024;28;20026;-48
2023/01/08 10:32:26;;;;;;;11.10;6.25;;;20.60;99.90;;;;;;5031775;28;20033;-48
2023/01/08 10:34:55;;;;;;;8.18;5.88;;;20.60;99.90;;;;;;5031901;28;20432;-48
2023/01/08 10:37:28;;;;;;;7.82;5.55;;;20.60;99.90;;;;;;5032672;28;20045;-48
2023/01/08 10:40:29;;;;;;;7.55;5.45;;;20.70;99.90;;;;;;5035432;28;20033;-48
2023/01/08 10:42:57;;;;;;;8.68;5.43;;;20.60;99.90;;;;;;5033639;28;20038;-48
2023/01/08 10:45:26;;;;;;;7.53;6.10;;;20.70;99.90;;;;;;5035515;28;20138;-48
2023/01/08 10:48:00;;;;;;;8.30;5.35;;;20.70;99.90;;;;;;5035433;28;20014;-46
2023/01/08 10:50:29;;;;;;;13.20;5.75;;;20.70;99.90;;;;;;5035328;28;20074;-48
2023/01/08 10:53:01;;;;;;;9.98;5.80;;;20.70;99.90;;;;;;5035252;28;20036;-48
2023/01/08 10:55:36;;;;;;;12.68;6.18;;;20.70;99.90;;;;;;5035173;28;20022;-47
2023/01/08 10:58:22;;;;;;;11.93;5.30;;;20.70;99.90;;;;;;5035128;28;20025;-47
2023/01/08 11:00:47;;;;;;;7.63;5.05;;;20.70;99.90;;;;;;5035003;28;20118;-47
2023/01/08 11:03:29;;;;;;;10.55;5.57;;;20.70;99.90;;;;;;5035081;28;20493;-48
2023/01/08 11:05:55;;;;;;;9.05;4.93;;;20.70;99.90;;;;;;5035030;28;20119;-46
2023/01/08 11:08:21;;;;;;;7.38;4.78;;;20.70;99.90;;;;;;5034920;28;20013;-47
2023/01/08 11:10:59;;;;;;;8.98;5.30;;;20.70;99.90;;;;;;5034829;28;20022;-48
2023/01/08 11:13:25;;;;;;;;;;;20.70;99.90;;;;;;5035196;28;20097;-49
2023/01/08 11:16:17;;;;;;;10.48;4.90;;;20.70;99.90;;;;;;5034920;28;19990;-49
2023/01/08 11:18:50;;;;;;;7.68;4.20;;;20.70;99.90;;;;;;5031562;28;20607;-49
2023/01/08 11:21:25;;;;;;;5.22;3.88;;;20.70;99.90;;;;;;5015660;28;20524;-47
2023/01/08 11:24:01;;;;;;;11.43;4.60;;;20.70;99.90;;;;;;5027834;28;20816;-48
2023/01/08 11:26:28;;;;;;;5.72;3.88;;;20.80;99.90;;;;;;5033900;28;20148;-50
2023/01/08 11:29:29;;;;;;;5.28;4.25;;;20.80;99.90;;;;;;5034190;28;20033;-49
2023/01/08 11:32:01;;;;;;;8.65;3.90;;;20.80;99.90;;;;;;5013695;28;20042;-50
2023/01/08 11:34:34;;;;;;;5.03;4.32;;;20.80;99.90;;;;;;5033944;28;20021;-49
2023/01/08 11:37:11;;;;;;;8.38;3.67;;;20.80;99.90;;;;;;5033919;28;20034;-51
2023/01/08 11:39:37;;;;;;;5.85;4.30;;;20.80;99.90;;;;;;5021245;28;20025;-51
2023/01/08 11:42:25;;;;;;;6.47;3.50;;;20.80;99.90;;;;;;5048947;28;20083;-49
2023/01/08 11:45:12;;;;;;;6.97;3.60;;;20.80;99.90;;;;;;5034159;28;20025;-49
2023/01/08 11:47:37;;;;;;;4.40;3.97;;;20.80;99.90;;;;;;5033719;28;20397;-50
2023/01/08 11:50:21;;;;;;;5.05;3.30;;;20.80;99.90;;;;;;5033791;28;20084;-49
2023/01/08 11:53:31;;;;;;;4.95;3.35;;;20.80;99.90;;;;;;5022710;28;20027;-50
2023/01/08 11:56:10;;;;;;;7.22;4.05;;;20.90;99.90;;;;;;5022073;28;20026;-48
2023/01/08 11:59:20;;;;;;;5.85;3.85;;;20.90;99.90;;;;;;5033384;28;20079;-47
2023/01/08 12:02:04;;;;;;;7.65;4.13;;;20.90;99.90;;;;;;5016820;28;20042;-48
2023/01/08 12:04:47;;;;;;;6.32;3.75;;;20.90;99.90;;;;;;5033379;28;20025;-49
2023/01/08 12:07:43;;;;;;;9.23;4.65;;;20.90;99.90;;;;;;5033899;28;20482;-50
2023/01/08 12:10:27;;;;;;;7.82;5.15;;;21.00;99.90;;;;;;5033745;28;20030;-48
2023/01/08 12:12:59;;;;;;;6.70;4.68;;;21.00;99.90;;;;;;5033028;28;20025;-50
2023/01/08 12:15:46;;;;;;;16.77;5.53;;;21.00;99.90;;;;;;5033198;28;20087;-49
2023/01/08 12:18:26;;;;;;;8.90;5.28;;;21.10;99.90;;;;;;5033391;28;20021;-51
2023/01/08 12:21:23;;;;;;;6.22;4.90;;;21.10;99.90;;;;;;5032951;28;20041;-51
2023/01/08 12:24:21;;;;;;;8.07;4.88;;;21.10;99.90;;;;;;5032642;28;20022;-50
2023/01/08 12:27:08;;;;;;;9.55;4.80;;;21.10;99.90;;;;;;5032402;28;20037;-51
2023/01/08 12:30:00;;;;;;;7.18;5.35;;;21.10;99.90;;;;;;5033266;28;20441;-53
2023/01/08 12:32:49;;;;;;;8.65;5.15;;;21.10;99.90;;;;;;5029283;28;20033;-51
2023/01/08 12:35:24;;;;;;;7.50;4.88;;;21.10;99.90;;;;;;5030473;28;20021;-49
2023/01/08 12:37:52;;;;;;;9.00;5.07;;;21.10;99.90;;;;;;5033006;28;20493;-50
2023/01/08 12:40:37;;;;;;;6.97;4.50;;;21.10;99.90;;;;;;5032999;28;20041;-49
2023/01/08 12:43:11;;;;;;;9.27;5.18;;;21.10;99.90;;;;;;5019848;28;20017;-51
2023/01/08 12:45:46;;;;;;;6.75;5.07;;;21.10;99.90;;;;;;5030320;28;20029;-48
2023/01/08 12:48:29;;;;;;;8.73;5.07;;;21.10;99.90;;;;;;5032317;28;20442;-49
2023/01/08 12:51:17;;;;;;;23.13;7.95;;;21.10;99.90;;;;;;5032738;28;20033;-51
2023/01/08 12:54:02;;;;;;;12.40;5.50;;;21.10;99.90;;;;;;5033159;28;20381;-51
2023/01/08 12:56:43;;;;;;;17.95;6.85;;;21.10;99.90;;;;;;5032398;28;20071;-47
2023/01/08 12:59:14;;;;;;;16.08;6.38;;;21.10;99.90;;;;;;5032517;28;20044;-47